Friday, October 24, 2014, 3:00 AM EDT

KTHV, York Airport

Location: Spring Grove, PA, United States Lat: 39.917
Local Time: 3:00 AM EDT ( 7:00 GMT) Lon: -76.883
Time Zone: US/Eastern Elev: 478 ft

Show me the last for .
Show Decoded

2014-10-24 01:53 METAR KTHV 240553Z AUTO 32013G18KT 10SM BKN045 13/04 A2989 RMK AO2 SLP122
                 T01280044 10161 20128 57005 =
2014-10-24 00:53 METAR KTHV 240453Z AUTO 31009G18KT 10SM OVC047 14/04 A2989 RMK AO2 SLP124
                 T01390044 401610106 =
2014-10-23 23:53 METAR KTHV 240353Z AUTO 31010KT 10SM OVC050 15/04 A2990 RMK AO2 SLP125 T01500044
                 =
2014-10-23 22:53 METAR KTHV 240253Z AUTO 31006KT 10SM OVC050 15/06 A2990 RMK AO2 SLP126 T01500056
                 53005 =
2014-10-23 21:53 METAR KTHV 240153Z AUTO 34008KT 10SM OVC050 16/06 A2990 RMK AO2 SLP126 T01560056
                 =
2014-10-23 20:53 METAR KTHV 240053Z AUTO 34008KT 10SM OVC050 16/06 A2989 RMK AO2 SLP122 T01610056
                 =
2014-10-23 19:53 METAR KTHV 232353Z AUTO 31007KT 10SM OVC050 16/06 A2988 RMK AO2 SLP122 T01560061
                 10161 20150 53018 =
2014-10-23 18:53 METAR KTHV 232253Z AUTO 33009KT 10SM OVC050 16/07 A2987 RMK AO2 SLP116 T01610067
                 =
2014-10-23 17:53 METAR KTHV 232153Z AUTO 31013KT 10SM OVC048 16/07 A2984 RMK AO2 SLP107 T01610067
                 =
2014-10-23 16:53 METAR KTHV 232053Z AUTO 31010G18KT 10SM OVC045 16/07 A2983 RMK AO2 SLP103
                 T01610072 56008 =
2014-10-23 15:53 METAR KTHV 231953Z AUTO 32012G17KT 10SM OVC042 16/07 A2984 RMK AO2 SLP107
                 T01610072 =
2014-10-23 14:53 METAR KTHV 231853Z AUTO 32015G20KT 10SM OVC039 16/07 A2984 RMK AO2 SLP107
                 T01560072 =
2014-10-23 13:53 METAR KTHV 231753Z AUTO 31014G20KT 10SM OVC035 15/07 A2985 RMK AO2 SLP112
                 T01500072 10150 20111 56009 =
2014-10-23 12:53 METAR KTHV 231653Z AUTO 32011G21KT 10SM OVC033 14/07 A2986 RMK AO2 SLP113
                 T01390072 =
2014-10-23 11:53 METAR KTHV 231553Z AUTO 32009G17KT 10SM OVC032 14/07 A2987 RMK AO2 SLP119
                 T01390067 =
2014-10-23 10:53 METAR KTHV 231453Z AUTO 33015G22KT 10SM OVC032 13/07 A2988 RMK AO2 SLP121
                 T01330067 50001 =
2014-10-23 09:53 METAR KTHV 231353Z AUTO 32008KT 10SM OVC031 12/06 A2988 RMK AO2 SLP122 T01220061
                 =
2014-10-23 08:53 METAR KTHV 231253Z AUTO 31012G22KT 10SM OVC031 12/06 A2988 RMK AO2 SLP120
                 T01170061 =
2014-10-23 06:53 METAR KTHV 231053Z AUTO 31011KT 10SM OVC031 11/06 A2988 RMK AO2 SLP119 T01110056
                 =
2014-10-23 06:01 METAR KTHV 231001Z AUTO 33006KT 10SM OVC030 11/06 A2989 RMK AO2 T01110061 =
2014-10-23 05:53 METAR KTHV 230953Z AUTO 33008KT 10SM OVC029 11/06 A2988 RMK AO2 SLP122 T01110061
                 =
2014-10-23 04:53 METAR KTHV 230853Z AUTO 33012KT 10SM OVC028 11/06 A2987 RMK AO2 RAB06E07 SLP117
                 P0000 60000 T01110061 56006 =
2014-10-23 03:53 METAR KTHV 230753Z AUTO 33010G16KT 10SM OVC027 11/06 A2987 RMK AO2 SLP118
                 T01110061 =

Support USWX by starting your Amazon purchase here.